Colonia Dora, Argentina
Current Conditions -  °F | °C
As of 3:00 PM on Tuesday 21 Oct 2014 (Local Time) from SANT Reporting Station
Broken Clouds Broken Clouds  
Wind Chill: 91°   Ceiling: 3500
Heat Index: 91°   Visibility: 6mi
Dew Point: 61°   Wind: 5mph
Humidity: 36%   Direction: 360°N
Pressure: 29.94"   Gusts: NA
Location:  28.6°S, 62.95°W
Report Text: SANT 211800Z 36004KT 9999 BKN035 SCT20033/16 Q1014
Loading
Personal Weather Stations






























Interactive Weather Map New forecast layout! Learn more

10-Day Weather Forecast

Advertisements
Track Severe Weather on mobile